Time;durP1;ratioP1;P1;durP2;ratioP2;P2;SDS_P1;SDS_P2;PMS_P1;PMS_P2;Temp;Humidity;BMP_temperature;BMP_pressure;BME280_temperature;BME280_humidity;BME280_pressure;Samples;Min_cycle;Max_cycle;Signal;HPM_P1;HPM_P2
2022/10/21 00:01:13;;;;;;;9.95;7.40;;;;;;;8.74;84.53;100973.00;7396931;19;20536;-70
2022/10/21 00:03:42;;;;;;;10.02;7.20;;;;;;;8.75;84.90;100966.91;7396684;19;20101;-70
2022/10/21 00:06:11;;;;;;;9.05;7.22;;;;;;;8.73;84.90;100971.31;7398945;19;20022;-70
2022/10/21 00:08:42;;;;;;;11.40;7.82;;;;;;;8.73;84.97;100965.19;7396341;19;20090;-70
2022/10/21 00:11:11;;;;;;;10.68;7.47;;;;;;;8.73;84.96;100968.69;7396789;19;20544;-70
2022/10/21 00:13:41;;;;;;;8.23;7.38;;;;;;;8.73;85.15;100968.69;7398665;19;20087;-69
2022/10/21 00:16:12;;;;;;;9.70;7.15;;;;;;;8.74;85.32;100970.41;7396484;19;20030;-70
2022/10/21 00:18:42;;;;;;;10.40;7.70;;;;;;;8.73;85.49;100962.56;7398778;19;20082;-70
2022/10/21 00:21:13;;;;;;;9.43;6.95;;;;;;;8.75;85.28;100955.59;7396341;19;20022;-69
2022/10/21 00:23:44;;;;;;;8.55;7.40;;;;;;;8.75;85.43;100948.59;7393631;19;20086;-69
2022/10/21 00:26:21;;;;;;;8.20;7.35;;;;;;;8.77;85.42;100945.94;7397916;19;20490;-69
2022/10/21 00:28:49;;;;;;;10.10;7.45;;;;;;;8.77;85.43;100939.00;7398446;19;20097;-70
2022/10/21 00:31:18;;;;;;;14.00;7.53;;;;;;;8.80;85.65;100951.16;7396266;19;20070;-68
2022/10/21 00:33:46;;;;;;;12.57;8.10;;;;;;;8.81;85.51;100947.69;7397978;19;20081;-68
2022/10/21 00:36:15;;;;;;;10.93;7.80;;;;;;;8.82;85.80;100952.03;7397871;19;20074;-69
2022/10/21 00:38:49;;;;;;;11.15;7.95;;;;;;;8.84;85.97;100955.47;7397867;19;20010;-68
2022/10/21 00:41:20;;;;;;;10.77;7.85;;;;;;;8.86;85.78;100953.72;7395770;19;20418;-68
2022/10/21 00:43:56;;;;;;;9.57;7.22;;;;;;;8.89;85.91;100963.28;7398137;19;20078;-69
2022/10/21 00:46:39;;;;;;;15.07;7.90;;;;;;;8.89;85.77;100964.13;7397302;19;20543;-68
2022/10/21 00:49:13;;;;;;;11.25;7.28;;;;;;;8.91;85.98;100961.50;7397945;19;20078;-68
2022/10/21 00:51:43;;;;;;;10.93;8.05;;;;;;;8.91;86.17;100965.00;7395228;19;20502;-69
2022/10/21 00:54:15;;;;;;;12.20;7.43;;;;;;;8.92;86.24;100958.88;7396924;19;20515;-68
2022/10/21 00:56:47;;;;;;;8.73;7.15;;;;;;;8.93;86.26;100959.75;7397747;19;20146;-69
2022/10/21 00:59:16;;;;;;;11.73;7.32;;;;;;;8.94;86.21;100937.94;7396992;19;20078;-68
2022/10/21 01:01:46;;;;;;;8.52;7.45;;;;;;;8.95;86.30;100940.53;7394546;19;20034;-68
2022/10/21 01:04:14;;;;;;;13.13;8.20;;;;;;;8.95;86.33;100943.13;7395270;19;20098;-69
2022/10/21 01:06:44;;;;;;;11.80;8.70;;;;;;;8.96;86.21;100934.41;7395118;19;20098;-69
2022/10/21 01:09:16;;;;;;;13.50;8.18;;;;;;;8.98;86.23;100923.06;7396589;19;20086;-69
2022/10/21 01:11:47;;;;;;;11.10;8.38;;;;;;;8.99;86.24;100930.03;7396154;19;20423;-68
2022/10/21 01:14:44;;;;;;;11.23;8.25;;;;;;;9.00;86.26;100913.41;7398301;19;20026;-68
2022/10/21 01:17:22;;;;;;;12.25;7.90;;;;;;;9.01;86.21;100908.19;7395278;19;20019;-68
2022/10/21 01:20:19;;;;;;;11.50;7.47;;;;;;;9.03;86.14;100902.94;7395816;19;20078;-68
2022/10/21 01:23:32;;;;;;;14.02;7.72;;;;;;;9.04;86.21;100907.28;7397252;19;20074;-68
2022/10/21 01:26:19;;;;;;;9.45;7.78;;;;;;;9.05;86.10;100901.13;7394250;19;20077;-68
2022/10/21 01:29:01;;;;;;;10.93;7.90;;;;;;;9.06;86.18;100889.78;7395373;19;20041;-68
2022/10/21 01:31:39;;;;;;;9.82;7.93;;;;;;;9.09;86.14;100887.16;7395216;19;20082;-68
2022/10/21 01:34:13;;;;;;;12.82;8.20;;;;;;;9.10;86.32;100884.50;7395341;19;20086;-68
2022/10/21 01:36:48;;;;;;;11.00;8.13;;;;;;;9.11;86.35;100885.34;7397804;19;20086;-68
2022/10/21 01:39:24;;;;;;;10.98;7.75;;;;;;;9.12;86.54;100881.84;7394846;19;20512;-68
2022/10/21 01:41:59;;;;;;;10.43;7.97;;;;;;;9.12;86.55;100884.47;7396699;19;20102;-68
2022/10/21 01:44:36;;;;;;;14.15;8.38;;;;;;;9.14;86.50;100882.72;7396473;19;20015;-68
2022/10/21 01:47:13;;;;;;;10.15;8.02;;;;;;;9.15;86.59;100865.25;7396687;19;20022;-68
2022/10/21 01:49:46;;;;;;;9.25;7.90;;;;;;;9.15;86.75;100850.44;7393913;19;20034;-68
2022/10/21 01:52:17;;;;;;;10.88;8.52;;;;;;;9.16;86.91;100841.66;7396218;19;20010;-68
2022/10/21 01:54:52;;;;;;;9.25;7.93;;;;;;;9.16;86.77;100843.44;7396697;19;20018;-68
2022/10/21 01:57:24;;;;;;;11.23;8.32;;;;;;;9.17;86.78;100834.69;7393941;19;20078;-68
2022/10/21 01:59:54;;;;;;;9.85;7.60;;;;;;;9.17;86.87;100845.16;7395287;19;20084;-68
2022/10/21 02:02:29;;;;;;;10.73;7.88;;;;;;;9.17;86.86;100832.06;7394760;19;20087;-68
2022/10/21 02:05:02;;;;;;;11.68;8.82;;;;;;;9.17;86.65;100826.84;7395765;19;20081;-68
2022/10/21 02:07:31;;;;;;;11.57;7.97;;;;;;;9.19;86.55;100827.69;7393154;19;20031;-68
2022/10/21 02:09:59;;;;;;;10.93;8.30;;;;;;;9.19;86.57;100828.53;7395068;19;20078;-68
2022/10/21 02:12:30;;;;;;;10.40;7.28;;;;;;;9.19;86.65;100823.31;7393161;19;20509;-68
2022/10/21 02:15:02;;;;;;;9.73;8.13;;;;;;;9.19;86.21;100810.22;7397361;19;20022;-69
2022/10/21 02:17:33;;;;;;;9.18;7.70;;;;;;;9.16;86.15;100802.41;7397880;19;20018;-69
2022/10/21 02:20:07;;;;;;;10.40;7.90;;;;;;;9.19;86.25;100812.00;7396537;19;20023;-68
2022/10/21 02:22:36;;;;;;;11.20;8.82;;;;;;;9.19;86.39;100799.75;7394662;19;20541;-68
2022/10/21 02:25:10;;;;;;;11.32;8.07;;;;;;;9.17;86.11;100785.81;7394365;19;20098;-68
2022/10/21 02:27:38;;;;;;;14.60;8.63;;;;;;;9.22;86.17;100783.13;7394944;19;20410;-69
2022/10/21 02:30:08;;;;;;;10.93;8.35;;;;;;;9.22;86.10;100776.13;7395563;19;20391;-68
2022/10/21 02:32:47;;;;;;;10.55;7.35;;;;;;;9.23;86.09;100777.84;7394729;19;20035;-68
2022/10/21 02:35:30;;;;;;;9.52;8.02;;;;;;;9.24;86.14;100774.38;7394892;19;20087;-68
2022/10/21 02:38:03;;;;;;;12.15;8.38;;;;;;;9.25;86.17;100778.72;7394872;19;20078;-69
2022/10/21 02:40:36;;;;;;;13.15;8.52;;;;;;;9.25;86.05;100783.06;7393750;19;20014;-69
2022/10/21 02:43:09;;;;;;;10.88;8.15;;;;;;;9.25;85.88;100786.56;7394065;19;20552;-69
2022/10/21 02:45:38;;;;;;;14.40;8.75;;;;;;;9.24;85.92;100779.59;7395896;19;20022;-68
2022/10/21 02:48:09;;;;;;;13.82;8.75;;;;;;;9.24;85.93;100779.59;7401822;19;20022;-68
2022/10/21 02:50:37;;;;;;;12.25;8.40;;;;;;;9.24;85.98;100778.75;7399756;19;20432;-68
2022/10/21 02:53:06;;;;;;;13.27;8.85;;;;;;;9.24;85.83;100774.38;7398594;19;20090;-68
2022/10/21 02:55:34;;;;;;;12.98;9.05;;;;;;;9.24;85.84;100776.13;7401599;19;20089;-68
2022/10/21 02:58:02;;;;;;;10.48;8.68;;;;;;;9.22;85.82;100778.75;7400982;19;20018;-67
2022/10/21 03:00:31;;;;;;;11.40;8.85;;;;;;;9.23;85.84;100775.25;7399661;19;20089;-68
2022/10/21 03:02:59;;;;;;;10.32;8.98;;;;;;;9.23;85.75;100771.78;7399724;19;20074;-68
2022/10/21 03:05:30;;;;;;;10.05;8.27;;;;;;;9.22;85.86;100770.03;7398196;19;20548;-68
2022/10/21 03:07:59;;;;;;;11.63;9.20;;;;;;;9.22;85.76;100778.75;7398046;19;20513;-67
2022/10/21 03:10:27;;;;;;;11.82;9.02;;;;;;;9.23;85.75;100771.78;7398061;19;20082;-68
2022/10/21 03:12:56;;;;;;;12.23;8.32;;;;;;;9.23;85.76;100756.91;7400769;19;20037;-67
2022/10/21 03:15:24;;;;;;;10.45;8.77;;;;;;;9.22;85.66;100749.94;7400514;19;20018;-68
2022/10/21 03:17:53;;;;;;;11.77;9.07;;;;;;;9.25;85.82;100752.53;7400571;19;20082;-68
2022/10/21 03:20:21;;;;;;;10.23;8.93;;;;;;;9.25;85.88;100751.66;7399613;19;20082;-67
2022/10/21 03:22:52;;;;;;;11.23;8.88;;;;;;;9.25;85.81;100752.53;7400434;19;20039;-68
2022/10/21 03:25:21;;;;;;;11.40;9.15;;;;;;;9.25;85.80;100757.78;7400586;19;20086;-68
2022/10/21 03:27:51;;;;;;;11.10;9.38;;;;;;;9.25;85.86;100772.59;7399720;19;20499;-68
2022/10/21 03:30:20;;;;;;;12.23;10.60;;;;;;;9.25;85.81;100768.25;7398610;19;20082;-68
2022/10/21 03:32:48;;;;;;;11.73;9.52;;;;;;;9.26;85.74;100769.97;7399786;19;20026;-68
2022/10/21 03:35:17;;;;;;;13.00;9.73;;;;;;;9.26;85.70;100762.13;7399579;19;20074;-68
2022/10/21 03:37:45;;;;;;;11.50;8.63;;;;;;;9.25;85.85;100768.25;7399320;19;20086;-68
2022/10/21 03:40:16;;;;;;;13.77;9.32;;;;;;;9.26;85.61;100761.25;7396801;19;20018;-68
2022/10/21 03:42:45;;;;;;;11.23;9.77;;;;;;;9.25;85.64;100768.25;7400032;19;20058;-67
2022/10/21 03:45:14;;;;;;;11.52;9.15;;;;;;;9.26;85.59;100772.59;7399093;19;20074;-69
2022/10/21 03:47:42;;;;;;;12.40;8.65;;;;;;;9.27;85.67;100758.59;7398948;19;20090;-67
2022/10/21 03:50:11;;;;;;;16.67;10.13;;;;;;;9.29;85.49;100745.50;7398456;19;20092;-68
2022/10/21 03:52:39;;;;;;;13.50;9.75;;;;;;;9.31;85.55;100745.47;7399215;19;20018;-68
2022/10/21 03:55:09;;;;;;;14.40;9.68;;;;;;;9.33;85.43;100743.69;7399199;19;20414;-68
2022/10/21 03:57:40;;;;;;;13.00;9.98;;;;;;;9.34;85.25;100729.69;7396113;19;20018;-68
2022/10/21 04:00:11;;;;;;;15.15;9.32;;;;;;;9.37;85.02;100724.41;7398115;19;20073;-68
2022/10/21 04:02:39;;;;;;;12.02;9.85;;;;;;;9.39;85.03;100717.38;7395710;19;20557;-68
2022/10/21 04:05:09;;;;;;;12.20;8.70;;;;;;;9.40;84.92;100709.53;7398910;19;20081;-68
2022/10/21 04:07:37;;;;;;;10.38;8.32;;;;;;;9.43;84.73;100713.84;7398272;19;20376;-67
2022/10/21 04:10:07;;;;;;;11.90;8.80;;;;;;;9.45;84.67;100722.53;7397947;19;20086;-69
2022/10/21 04:12:35;;;;;;;11.40;9.40;;;;;;;9.48;84.45;100716.34;7399311;19;20015;-68
2022/10/21 04:15:08;;;;;;;13.55;9.65;;;;;;;9.50;84.45;100699.72;7398845;19;20078;-68
2022/10/21 04:17:37;;;;;;;11.18;9.25;;;;;;;9.53;84.29;100707.53;7398563;19;20403;-68
2022/10/21 04:20:07;;;;;;;14.85;8.82;;;;;;;9.54;84.24;100709.28;7396166;19;20035;-68
2022/10/21 04:22:35;;;;;;;11.73;8.77;;;;;;;9.55;84.08;100697.88;7395689;19;20544;-67
2022/10/21 04:25:04;;;;;;;12.23;9.63;;;;;;;9.57;84.07;100698.72;7396222;19;20098;-68
2022/10/21 04:27:32;;;;;;;15.40;9.68;;;;;;;9.59;83.92;100704.81;7395563;19;20082;-68
2022/10/21 04:30:01;;;;;;;13.05;8.88;;;;;;;9.61;83.92;100702.16;7396024;19;20401;-68
2022/10/21 04:32:32;;;;;;;13.60;9.27;;;;;;;9.62;83.91;100696.88;7397614;19;20086;-68
2022/10/21 04:35:00;;;;;;;13.10;9.32;;;;;;;9.64;83.80;100696.84;7397634;19;20090;-68
2022/10/21 04:37:29;;;;;;;10.55;8.13;;;;;;;9.66;83.75;100696.84;7395686;19;20086;-68
2022/10/21 04:39:57;;;;;;;10.85;9.75;;;;;;;9.67;83.52;100686.34;7395313;19;20493;-68
2022/10/21 04:42:26;;;;;;;12.88;8.90;;;;;;;9.69;83.47;100681.06;7395465;19;20021;-67
2022/10/21 04:44:54;;;;;;;13.55;8.35;;;;;;;9.69;83.61;100673.19;7397325;19;20075;-67
2022/10/21 04:47:23;;;;;;;11.40;8.88;;;;;;;9.70;83.59;100672.31;7398073;19;20031;-70
2022/10/21 04:49:54;;;;;;;13.57;9.15;;;;;;;9.71;83.51;100677.53;7398543;19;20014;-67
2022/10/21 04:52:23;;;;;;;11.02;8.93;;;;;;;9.72;83.48;100673.16;7396382;19;20018;-67
2022/10/21 04:54:51;;;;;;;9.55;8.43;;;;;;;9.71;83.11;100666.19;7396850;19;20086;-68
2022/10/21 04:57:20;;;;;;;11.88;8.43;;;;;;;9.74;83.09;100671.34;7396765;19;20074;-68
2022/10/21 04:59:48;;;;;;;12.90;8.93;;;;;;;9.73;83.10;100667.88;7395123;19;20015;-68
2022/10/21 05:02:17;;;;;;;12.55;9.75;;;;;;;9.74;83.07;100671.34;7394275;19;20078;-68
2022/10/21 05:04:52;;;;;;;10.38;8.75;;;;;;;9.76;83.11;100670.44;7394746;19;20010;-68
2022/10/21 05:07:23;;;;;;;13.02;8.95;;;;;;;9.77;83.19;100666.06;7395140;19;20074;-69
2022/10/21 05:09:51;;;;;;;11.18;8.68;;;;;;;9.79;83.10;100659.03;7394164;19;20014;-68
2022/10/21 05:12:20;;;;;;;12.02;9.88;;;;;;;9.81;83.06;100656.38;7396498;19;20084;-68
2022/10/21 05:14:48;;;;;;;31.35;19.85;;;;;;;9.82;83.12;100647.63;7394087;19;20442;-68
2022/10/21 05:17:23;;;;;;;17.45;12.18;;;;;;;9.84;82.95;100630.13;7395874;19;20019;-69
2022/10/21 05:19:52;;;;;;;24.15;14.55;;;;;;;9.84;82.87;100641.44;7394439;19;20035;-67
2022/10/21 05:22:23;;;;;;;14.43;10.88;;;;;;;9.86;82.65;100642.28;7394287;19;20094;-68
2022/10/21 05:24:51;;;;;;;11.05;8.48;;;;;;;9.87;82.61;100646.66;7393716;19;20564;-68
2022/10/21 05:27:19;;;;;;;10.88;9.25;;;;;;;9.88;82.47;100637.91;7392693;19;20014;-67
2022/10/21 05:29:48;;;;;;;12.68;9.77;;;;;;;9.89;82.67;100639.59;7394197;19;20022;-67
2022/10/21 05:32:16;;;;;;;10.68;8.95;;;;;;;9.90;82.64;100641.31;7394204;19;20082;-67
2022/10/21 05:34:45;;;;;;;13.52;9.38;;;;;;;9.91;82.83;100639.59;7394349;19;20086;-69
2022/10/21 05:37:13;;;;;;;12.05;10.18;;;;;;;9.90;82.68;100649.19;7393652;19;20078;-67
2022/10/21 05:39:45;;;;;;;12.18;9.82;;;;;;;9.90;82.76;100636.09;7394969;19;20030;-68
2022/10/21 05:42:13;;;;;;;10.75;8.90;;;;;;;9.91;82.91;100624.72;7393334;19;20514;-67
2022/10/21 05:44:41;;;;;;;11.75;9.65;;;;;;;9.92;82.87;100623.81;7394987;19;20081;-67
2022/10/21 05:47:10;;;;;;;15.88;10.10;;;;;;;9.93;82.99;100624.69;7395677;19;20074;-69
2022/10/21 05:49:38;;;;;;;14.05;9.65;;;;;;;9.94;83.27;100634.28;7394431;19;20548;-67
2022/10/21 05:52:07;;;;;;;12.02;9.82;;;;;;;9.94;83.21;100643.00;7394394;19;20018;-67
2022/10/21 05:54:35;;;;;;;12.90;10.23;;;;;;;9.95;83.30;100633.38;7395663;19;20074;-67
2022/10/21 05:57:06;;;;;;;14.43;10.10;;;;;;;9.94;83.30;100631.66;7393984;19;20546;-66
2022/10/21 05:59:35;;;;;;;13.55;10.60;;;;;;;9.94;83.43;100626.41;7394802;19;20421;-67
2022/10/21 06:02:03;;;;;;;13.07;10.75;;;;;;;9.94;83.49;100616.81;7393157;19;20031;-67
2022/10/21 06:04:32;;;;;;;15.13;11.35;;;;;;;9.95;83.57;100617.66;7392096;19;20086;-67
2022/10/21 06:07:00;;;;;;;12.80;10.32;;;;;;;9.95;83.64;100613.25;7392384;19;20014;-68
2022/10/21 06:09:29;;;;;;;20.25;11.10;;;;;;;9.95;83.58;100621.13;7391697;19;20086;-67
2022/10/21 06:11:58;;;;;;;14.98;10.40;;;;;;;9.97;83.68;100626.38;7391801;19;20014;-67
2022/10/21 06:14:29;;;;;;;14.02;10.95;;;;;;;9.99;83.59;100623.69;7393200;19;20485;-68
2022/10/21 06:16:58;;;;;;;13.18;10.20;;;;;;;10.00;83.52;100620.19;7392719;19;20093;-68
2022/10/21 06:19:26;;;;;;;14.07;10.48;;;;;;;10.01;83.53;100617.53;7393918;19;20082;-71
2022/10/21 06:21:55;;;;;;;12.27;10.25;;;;;;;10.02;83.39;100621.88;7397039;19;20081;-71
2022/10/21 06:24:24;;;;;;;15.95;10.57;;;;;;;10.04;83.37;100629.72;7398438;19;20484;-68
2022/10/21 06:26:52;;;;;;;12.98;10.73;;;;;;;10.06;83.19;100627.91;7402316;19;20023;-68
2022/10/21 06:29:22;;;;;;;12.23;9.85;;;;;;;10.08;82.98;100628.75;7398725;19;20488;-67
2022/10/21 06:31:53;;;;;;;11.80;9.88;;;;;;;10.09;82.88;100633.94;7401419;19;20018;-68
2022/10/21 06:34:22;;;;;;;17.35;9.73;;;;;;;10.11;82.86;100634.78;7401572;19;20090;-68
2022/10/21 06:36:50;;;;;;;13.15;9.60;;;;;;;10.13;82.83;100632.13;7400930;19;20066;-68
2022/10/21 06:39:18;;;;;;;13.35;9.60;;;;;;;10.14;82.74;100633.84;7401381;19;20078;-69
2022/10/21 06:41:47;;;;;;;13.88;10.13;;;;;;;10.16;82.78;100646.91;7397996;19;20517;-67
2022/10/21 06:44:15;;;;;;;12.60;9.02;;;;;;;10.17;82.84;100652.13;7400983;19;20094;-67
2022/10/21 06:46:44;;;;;;;11.98;9.32;;;;;;;10.20;82.69;100649.44;7398673;19;20082;-67
2022/10/21 06:49:15;;;;;;;10.70;9.18;;;;;;;10.21;82.58;100651.19;7398402;19;20094;-67
2022/10/21 06:51:43;;;;;;;11.18;9.52;;;;;;;10.23;82.66;100643.28;7397995;19;20367;-68
2022/10/21 06:54:12;;;;;;;12.85;10.50;;;;;;;10.25;82.74;100652.84;7402399;19;20021;-67
2022/10/21 06:56:41;;;;;;;16.83;10.20;;;;;;;10.27;82.60;100656.28;7400904;19;20082;-68
2022/10/21 06:59:09;;;;;;;14.75;10.10;;;;;;;10.30;82.52;100655.38;7398700;19;20090;-69
2022/10/21 07:01:38;;;;;;;13.23;9.48;;;;;;;10.33;82.32;100662.31;7397889;19;20094;-69
2022/10/21 07:04:07;;;;;;;11.18;9.55;;;;;;;10.35;82.29;100663.09;7398198;19;20007;-68
2022/10/21 07:06:39;;;;;;;11.50;9.63;;;;;;;10.37;82.19;100661.34;7397457;19;20018;-68
2022/10/21 07:09:10;;;;;;;11.60;9.70;;;;;;;10.38;81.61;100650.81;7400111;19;20014;-68
2022/10/21 07:11:38;;;;;;;15.23;10.27;;;;;;;10.42;81.84;100660.34;7397835;19;20078;-66
2022/10/21 07:14:07;;;;;;;14.50;10.40;;;;;;;10.45;81.71;100646.31;7399640;19;20094;-66
2022/10/21 07:16:37;;;;;;;17.00;10.80;;;;;;;10.49;81.68;100647.09;7398618;19;20017;-67
2022/10/21 07:19:07;;;;;;;15.13;10.45;;;;;;;10.53;81.65;100654.03;7396858;19;20014;-69
2022/10/21 07:21:38;;;;;;;14.52;10.38;;;;;;;10.57;81.34;100655.66;7397037;19;20094;-68
2022/10/21 07:24:07;;;;;;;13.88;9.75;;;;;;;10.63;81.14;100646.78;7400221;19;20066;-66
2022/10/21 07:26:36;;;;;;;15.02;10.25;;;;;;;10.66;81.42;100644.94;7400988;19;20082;-67
2022/10/21 07:29:06;;;;;;;13.32;10.18;;;;;;;10.69;81.16;100631.78;7399800;19;20011;-66
2022/10/21 07:31:37;;;;;;;15.20;9.88;;;;;;;10.73;81.09;100637.81;7395656;19;20498;-67
2022/10/21 07:34:07;;;;;;;12.80;10.88;;;;;;;10.75;80.98;100643.88;7399827;19;20079;-66
2022/10/21 07:36:41;;;;;;;12.65;10.05;;;;;;;10.77;80.88;100647.31;7399888;19;20041;-68
2022/10/21 07:39:12;;;;;;;22.58;15.77;;;;;;;10.80;80.89;100646.38;7396697;19;20509;-69
2022/10/21 07:41:43;;;;;;;16.95;11.50;;;;;;;10.81;80.88;100637.63;7397081;19;20085;-67
2022/10/21 07:44:12;;;;;;;15.05;10.93;;;;;;;10.82;80.92;100637.56;7396665;19;20513;-67
2022/10/21 07:46:42;;;;;;;14.77;10.88;;;;;;;10.83;80.71;100633.19;7398632;19;20424;-67
2022/10/21 07:49:12;;;;;;;15.48;11.52;;;;;;;10.85;80.86;100637.50;7398931;19;20026;-67
2022/10/21 07:51:44;;;;;;;14.50;10.38;;;;;;;10.85;80.96;100629.63;7396498;19;20082;-68
2022/10/21 07:54:13;;;;;;;16.42;11.23;;;;;;;10.86;80.99;100633.97;7399299;19;20018;-68
2022/10/21 07:56:44;;;;;;;18.25;12.02;;;;;;;10.90;81.07;100632.13;7399310;19;20018;-68
2022/10/21 07:59:14;;;;;;;12.68;10.88;;;;;;;10.90;81.24;100621.63;7399559;19;20033;-67
2022/10/21 08:01:46;;;;;;;16.40;11.85;;;;;;;10.94;80.95;100620.66;7398375;19;20384;-67
2022/10/21 08:04:18;;;;;;;14.65;10.50;;;;;;;10.97;81.23;100614.47;7396437;19;20022;-68
2022/10/21 08:06:50;;;;;;;12.85;10.40;;;;;;;11.02;81.23;100612.56;7396871;19;20007;-68
2022/10/21 08:09:19;;;;;;;14.90;11.15;;;;;;;11.05;81.25;100610.75;7398979;19;20361;-67
2022/10/21 08:11:48;;;;;;;16.08;12.07;;;;;;;11.13;81.25;100604.44;7397323;19;20074;-68
2022/10/21 08:14:17;;;;;;;15.18;10.85;;;;;;;11.18;81.12;100613.91;7397796;19;20036;-67
2022/10/21 08:16:45;;;;;;;13.98;10.20;;;;;;;11.24;81.19;100629.50;7396211;19;20007;-68
2022/10/21 08:19:20;;;;;;;15.02;11.48;;;;;;;11.30;81.04;100617.09;7395914;19;20089;-68
2022/10/21 08:21:51;;;;;;;12.60;10.30;;;;;;;11.34;81.19;100610.88;7397804;19;20015;-69
2022/10/21 08:24:22;;;;;;;16.38;11.15;;;;;;;11.40;81.11;100618.59;7395932;19;20480;-68
2022/10/21 08:26:51;;;;;;;12.77;10.30;;;;;;;11.45;81.12;100621.97;7398710;19;20011;-67
2022/10/21 08:29:20;;;;;;;12.93;10.52;;;;;;;11.51;80.90;100621.81;7395635;19;20033;-67
2022/10/21 08:31:48;;;;;;;15.30;11.23;;;;;;;11.54;80.55;100621.69;7398245;19;20040;-68
2022/10/21 08:34:17;;;;;;;14.40;10.50;;;;;;;11.55;80.52;100620.81;7395406;19;20070;-67
2022/10/21 08:36:45;;;;;;;13.77;10.65;;;;;;;11.64;80.50;100632.81;7396798;19;20010;-68
2022/10/21 08:39:17;;;;;;;16.08;11.55;;;;;;;11.69;80.30;100627.41;7397798;19;20019;-68
2022/10/21 08:41:57;;;;;;;12.88;10.90;;;;;;;11.74;79.79;100625.56;7395929;19;20010;-68
2022/10/21 08:44:36;;;;;;;12.52;10.85;;;;;;;11.78;78.89;100611.41;7394871;19;20036;-68
2022/10/21 08:47:12;;;;;;;16.00;11.32;;;;;;;11.83;78.87;100611.28;7397726;19;20026;-67
2022/10/21 08:49:52;;;;;;;12.80;11.20;;;;;;;11.92;78.11;100604.88;7397528;19;20015;-68
2022/10/21 08:52:24;;;;;;;19.40;11.90;;;;;;;12.00;77.87;100593.25;7397238;19;20037;-68
2022/10/21 08:54:58;;;;;;;14.68;11.93;;;;;;;12.10;76.50;100598.25;7398199;19;20032;-68
2022/10/21 08:57:28;;;;;;;16.92;11.18;;;;;;;12.16;77.12;100582.28;7397813;19;20376;-67
2022/10/21 08:59:57;;;;;;;15.10;10.93;;;;;;;12.26;76.53;100588.09;7397147;19;20017;-67
2022/10/21 09:02:37;;;;;;;14.45;10.60;;;;;;;12.34;76.30;100586.09;7395891;19;20027;-68
2022/10/21 09:05:23;;;;;;;14.07;10.95;;;;;;;12.41;75.00;100585.00;7395622;19;20544;-67
2022/10/21 09:08:02;;;;;;;17.15;10.75;;;;;;;12.46;75.61;100595.38;7397752;19;20019;-68
2022/10/21 09:10:45;;;;;;;12.48;11.05;;;;;;;12.55;74.04;100598.56;7395364;19;20563;-68
2022/10/21 09:13:19;;;;;;;15.98;10.75;;;;;;;12.64;74.11;100584.25;7396478;19;20081;-67
2022/10/21 09:16:02;;;;;;;13.57;11.35;;;;;;;12.74;74.11;100592.72;7396535;19;20078;-68
2022/10/21 09:18:41;;;;;;;12.73;9.30;;;;;;;12.82;73.47;100581.91;7396049;19;20485;-69
2022/10/21 09:21:20;;;;;;;14.38;10.00;;;;;;;12.88;72.89;100582.56;7394272;19;20081;-70
2022/10/21 09:23:57;;;;;;;11.18;9.88;;;;;;;12.95;73.19;100591.09;7394836;19;20074;-70
2022/10/21 09:26:37;;;;;;;12.23;10.18;;;;;;;13.01;72.51;100587.41;7396598;19;20018;-70
2022/10/21 09:29:22;;;;;;;12.10;9.75;;;;;;;13.10;72.59;100584.44;7395623;19;20010;-70
2022/10/21 09:31:50;;;;;;;;;;;;;;;13.17;72.40;100587.75;7396363;19;20015;-74
2022/10/21 09:34:25;;;;;;;12.95;9.73;;;;;;;13.23;73.05;100597.19;7394825;19;19974;-70
2022/10/21 09:36:55;;;;;;;12.25;9.65;;;;;;;13.27;72.88;100599.69;7395010;19;20082;-69
2022/10/21 09:39:35;;;;;;;12.20;9.75;;;;;;;13.29;71.62;100597.00;7393335;19;20104;-71
2022/10/21 09:42:08;;;;;;;14.98;10.32;;;;;;;13.31;72.03;100590.75;7392887;19;20024;-69
2022/10/21 09:44:36;;;;;;;15.63;9.70;;;;;;;13.35;71.96;100591.50;7393233;19;20018;-71
2022/10/21 09:47:17;;;;;;;10.15;8.55;;;;;;;13.36;71.90;100585.31;7395228;19;20078;-69
2022/10/21 09:49:49;;;;;;;13.75;10.25;;;;;;;13.38;71.55;100575.59;7393499;19;20084;-68
2022/10/21 09:52:20;;;;;;;13.30;10.73;;;;;;;13.43;70.65;100576.28;7392988;19;20568;-69
2022/10/21 09:54:49;;;;;;;20.90;9.25;;;;;;;13.49;71.62;100573.44;7394795;19;20089;-73
2022/10/21 09:57:27;;;;;;;12.35;10.63;;;;;;;13.55;69.78;100577.63;7393604;19;20090;-68
2022/10/21 09:59:59;;;;;;;13.15;9.02;;;;;;;13.60;70.73;100574.84;7394236;19;20106;-69
2022/10/21 10:02:32;;;;;;;13.15;9.90;;;;;;;13.63;70.66;100570.28;7394769;19;20086;-71
2022/10/21 10:05:01;;;;;;;14.30;9.98;;;;;;;13.68;70.58;100568.34;7393381;19;20552;-68
2022/10/21 10:07:35;;;;;;;12.15;9.70;;;;;;;13.71;70.80;100567.41;7392510;19;20018;-68
2022/10/21 10:10:05;;;;;;;12.40;9.35;;;;;;;13.82;70.92;100572.25;7394466;19;20426;-70
2022/10/21 10:12:36;;;;;;;12.18;10.13;;;;;;;13.91;70.84;100560.47;7392879;19;20023;-70
2022/10/21 10:15:25;;;;;;;12.82;9.25;;;;;;;13.98;69.37;100548.78;7394079;19;20502;-70
2022/10/21 10:17:58;;;;;;;12.57;9.07;;;;;;;14.04;69.88;100545.91;7393760;19;20513;-69
2022/10/21 10:20:27;;;;;;;12.37;9.27;;;;;;;14.10;70.00;100537.75;7393313;19;20027;-68
2022/10/21 10:23:17;;;;;;;13.35;10.00;;;;;;;14.16;68.58;100548.03;7392530;19;20513;-69
2022/10/21 10:25:52;;;;;;;13.93;9.63;;;;;;;14.20;69.21;100551.41;7392935;19;20079;-69
2022/10/21 10:28:26;;;;;;;12.90;9.65;;;;;;;14.22;68.71;100551.38;7393013;19;20431;-68
2022/10/21 10:30:57;;;;;;;16.50;10.55;;;;;;;14.24;69.40;100545.13;7392119;19;20039;-68
2022/10/21 10:33:29;;;;;;;11.60;9.80;;;;;;;14.26;69.17;100551.19;7390963;19;20070;-67
2022/10/21 10:36:00;;;;;;;15.23;11.20;;;;;;;14.26;69.26;100537.13;7391888;19;20078;-68
2022/10/21 10:38:31;;;;;;;14.18;10.98;;;;;;;14.28;69.04;100543.19;7393797;19;20498;-70
2022/10/21 10:41:06;;;;;;;16.05;10.38;;;;;;;14.29;68.60;100548.44;7392577;19;20074;-69
2022/10/21 10:43:45;;;;;;;10.90;9.60;;;;;;;14.30;69.36;100551.91;7392262;19;20018;-68
2022/10/21 10:46:25;;;;;;;13.65;9.93;;;;;;;14.33;69.00;100549.13;7393566;19;20022;-70
2022/10/21 10:48:54;;;;;;;11.02;9.73;;;;;;;14.36;69.23;100543.75;7394083;19;20071;-69
2022/10/21 10:51:29;;;;;;;11.13;9.02;;;;;;;14.38;68.52;100534.00;7392073;19;20014;-69
2022/10/21 10:54:18;;;;;;;12.85;9.57;;;;;;;14.41;68.13;100531.22;7393988;19;20365;-70
2022/10/21 10:56:50;;;;;;;11.02;9.88;;;;;;;14.45;68.57;100526.69;7393808;19;20018;-70
2022/10/21 10:59:36;;;;;;;14.40;10.07;;;;;;;14.49;67.96;100528.28;7393810;19;20029;-68
2022/10/21 11:02:23;;;;;;;15.70;8.70;;;;;;;14.56;68.51;100523.59;7391506;19;20078;-71
2022/10/21 11:05:23;;;;;;;11.73;8.70;;;;;;;14.63;67.97;100514.50;7391150;19;20024;-69
2022/10/21 11:07:53;;;;;;;10.32;8.80;;;;;;;14.71;68.64;100511.56;7398030;19;20026;-72
2022/10/21 11:10:35;;;;;;;11.00;8.38;;;;;;;14.80;67.67;100521.75;7397292;19;20082;-67
2022/10/21 11:13:06;;;;;;;10.57;8.80;;;;;;;14.89;68.16;100520.50;7397272;19;20426;-68
2022/10/21 11:16:00;;;;;;;9.98;8.40;;;;;;;14.97;68.13;100526.28;7399830;19;20149;-71
2022/10/21 11:18:36;;;;;;;11.60;8.27;;;;;;;15.03;67.70;100522.53;7399750;19;20505;-68
2022/10/21 11:21:13;;;;;;;13.88;9.30;;;;;;;15.08;67.48;100521.38;7396366;19;20086;-68
2022/10/21 11:24:06;;;;;;;14.30;9.02;;;;;;;15.11;66.06;100523.03;7398087;19;20098;-67
2022/10/21 11:26:46;;;;;;;11.80;8.95;;;;;;;15.11;67.41;100523.91;7398845;19;20079;-69
2022/10/21 11:29:29;;;;;;;12.13;8.95;;;;;;;15.09;66.61;100520.47;7396505;19;20022;-69
2022/10/21 11:32:13;;;;;;;9.82;8.32;;;;;;;15.10;67.29;100521.31;7399473;19;20398;-68
2022/10/21 11:35:00;;;;;;;13.30;9.18;;;;;;;15.09;66.73;100517.81;7396931;19;20014;-69
2022/10/21 11:37:43;;;;;;;15.60;9.98;;;;;;;15.07;66.90;100522.31;7399616;19;20156;-68
2022/10/21 11:40:21;;;;;;;13.35;9.07;;;;;;;15.06;67.28;100519.72;7397548;19;20221;-68
2022/10/21 11:42:52;;;;;;;9.35;8.32;;;;;;;15.06;67.32;100517.94;7396841;19;20018;-68